Time;durP1;ratioP1;P1;durP2;ratioP2;P2;SDS_P1;SDS_P2;PMS_P1;PMS_P2;Temp;Humidity;BMP_temperature;BMP_pressure;BME280_temperature;BME280_humidity;BME280_pressure;Samples;Min_cycle;Max_cycle;Signal;HPM_P1;HPM_P2
2022/03/16 00:00:22;;;;;;;4.50;2.00;;;22.80;30.10;;;;;;4956203;29;20390;-73
2022/03/16 00:02:48;;;;;;;4.88;2.20;;;22.80;30.10;;;;;;4955687;29;20402;-73
2022/03/16 00:05:15;;;;;;;4.30;2.10;;;22.80;30.20;;;;;;4955037;28;20908;-73
2022/03/16 00:07:41;;;;;;;3.65;1.90;;;22.70;30.10;;;;;;4956091;29;20460;-73
2022/03/16 00:10:08;;;;;;;4.10;2.05;;;22.70;30.10;;;;;;4938748;29;20614;-74
2022/03/16 00:12:35;;;;;;;4.32;1.90;;;22.70;30.10;;;;;;4955751;29;20398;-74
2022/03/16 00:15:00;;;;;;;4.57;1.80;;;22.80;30.30;;;;;;4955708;29;20477;-73
2022/03/16 00:17:26;;;;;;;4.82;1.90;;;22.70;30.80;;;;;;4938592;29;20561;-73
2022/03/16 00:19:52;;;;;;;5.60;2.03;;;22.70;30.30;;;;;;4938258;29;20931;-74
2022/03/16 00:22:17;;;;;;;4.03;1.83;;;22.70;30.20;;;;;;4955885;29;20401;-73
2022/03/16 00:24:43;;;;;;;4.13;1.70;;;22.70;30.20;;;;;;4955101;29;20413;-75
2022/03/16 00:27:09;;;;;;;4.57;2.00;;;22.70;30.20;;;;;;4955643;29;20405;-73
2022/03/16 00:29:35;;;;;;;5.13;2.08;;;22.70;30.20;;;;;;4938405;29;20769;-73
2022/03/16 00:32:01;;;;;;;5.85;2.20;;;22.70;30.30;;;;;;4955305;29;20402;-73
2022/03/16 00:34:27;;;;;;;5.53;2.20;;;22.70;30.20;;;;;;4955591;29;20394;-74
2022/03/16 00:36:52;;;;;;;4.78;1.80;;;22.70;30.30;;;;;;4954984;29;20464;-73
2022/03/16 00:39:18;;;;;;;4.17;2.00;;;22.70;30.30;;;;;;4955400;29;20481;-75
2022/03/16 00:41:44;;;;;;;4.85;1.95;;;22.70;30.30;;;;;;4955531;29;20392;-74
2022/03/16 00:44:10;;;;;;;4.80;1.90;;;22.70;30.30;;;;;;4955628;29;20872;-75
2022/03/16 00:46:36;;;;;;;4.78;1.80;;;22.60;30.30;;;;;;4955244;29;20390;-73
2022/03/16 00:49:03;;;;;;;3.95;1.90;;;22.70;30.40;;;;;;4937774;29;20398;-74
2022/03/16 00:51:29;;;;;;;5.00;1.90;;;22.60;30.30;;;;;;4955302;29;20482;-76
2022/03/16 00:53:55;;;;;;;4.80;2.10;;;22.60;30.30;;;;;;4955162;29;20390;-74
2022/03/16 00:56:21;;;;;;;4.22;1.95;;;22.60;30.30;;;;;;4937882;29;20453;-74
2022/03/16 00:58:47;;;;;;;4.15;1.90;;;22.60;30.40;;;;;;4954826;29;20899;-74
2022/03/16 01:01:13;;;;;;;3.67;1.65;;;22.60;30.30;;;;;;4954989;29;20404;-73
2022/03/16 01:03:40;;;;;;;4.35;1.80;;;22.60;30.40;;;;;;4955047;29;20406;-75
2022/03/16 01:06:06;;;;;;;4.53;1.90;;;22.60;30.30;;;;;;4937746;29;20401;-73
2022/03/16 01:08:32;;;;;;;3.85;1.90;;;22.60;30.40;;;;;;4954970;29;20484;-74
2022/03/16 01:10:58;;;;;;;3.03;1.60;;;22.60;30.40;;;;;;4954550;29;20629;-74
2022/03/16 01:13:23;;;;;;;4.25;1.70;;;22.60;30.30;;;;;;4954817;29;20394;-74
2022/03/16 01:15:49;;;;;;;3.10;1.90;;;22.60;30.30;;;;;;4954687;28;20386;-74
2022/03/16 01:18:15;;;;;;;5.30;2.15;;;22.60;30.40;;;;;;4954539;29;20523;-73
2022/03/16 01:20:42;;;;;;;4.88;2.00;;;22.60;30.30;;;;;;4954509;29;20409;-74
2022/03/16 01:23:07;;;;;;;4.35;1.90;;;22.60;30.40;;;;;;4954451;29;20410;-74
2022/03/16 01:25:33;;;;;;;3.83;2.00;;;22.60;30.40;;;;;;4954759;29;20390;-73
2022/03/16 01:27:58;;;;;;;3.97;1.83;;;22.60;30.50;;;;;;4954515;29;20441;-74
2022/03/16 01:30:24;;;;;;;4.10;1.70;;;22.60;30.40;;;;;;4954693;29;20394;-76
2022/03/16 01:32:50;;;;;;;3.88;1.70;;;22.60;30.40;;;;;;4954102;29;20776;-73
2022/03/16 01:35:16;;;;;;;3.93;1.60;;;22.60;30.50;;;;;;4954496;29;20449;-73
2022/03/16 01:37:45;;;;;;;3.72;1.80;;;22.60;30.50;;;;;;4954412;29;20422;-73
2022/03/16 01:40:11;;;;;;;4.32;1.80;;;22.60;30.50;;;;;;4954319;29;20386;-74
2022/03/16 01:42:37;;;;;;;3.08;1.50;;;22.60;30.50;;;;;;4954228;29;21001;-73
2022/03/16 01:45:04;;;;;;;4.00;1.85;;;22.60;30.50;;;;;;4954032;29;20393;-73
2022/03/16 01:47:29;;;;;;;5.30;1.90;;;22.70;30.60;;;;;;4936703;29;20399;-73
2022/03/16 01:49:56;;;;;;;4.05;1.80;;;22.60;30.60;;;;;;4953691;29;20460;-74
2022/03/16 01:52:27;;;;;;;2.92;1.60;;;22.60;30.60;;;;;;4954020;29;20969;-73
2022/03/16 01:54:55;;;;;;;4.30;1.97;;;22.50;30.50;;;;;;4953642;29;20507;-73
2022/03/16 01:57:21;;;;;;;3.30;1.80;;;22.50;30.50;;;;;;4936747;29;20571;-74
2022/03/16 01:59:47;;;;;;;4.00;2.05;;;22.50;30.60;;;;;;4953982;29;20951;-74
2022/03/16 02:02:13;;;;;;;2.92;1.80;;;22.50;30.50;;;;;;4953925;29;20390;-73
2022/03/16 02:04:40;;;;;;;4.10;1.90;;;22.60;30.50;;;;;;4953794;29;20406;-73
2022/03/16 02:07:06;;;;;;;5.07;1.80;;;22.50;30.50;;;;;;4953549;29;20390;-73
2022/03/16 02:09:33;;;;;;;3.13;1.70;;;22.50;30.50;;;;;;4953959;29;20493;-74
2022/03/16 02:11:59;;;;;;;3.57;1.73;;;22.50;30.50;;;;;;4953748;29;20401;-73
2022/03/16 02:14:25;;;;;;;5.03;1.70;;;22.50;30.50;;;;;;4953906;29;20394;-75
2022/03/16 02:16:51;;;;;;;4.05;2.00;;;22.50;30.60;;;;;;4953267;29;20426;-73
2022/03/16 02:19:17;;;;;;;4.43;1.88;;;22.50;30.60;;;;;;4953207;29;20410;-73
2022/03/16 02:21:49;;;;;;;3.90;1.80;;;22.50;30.60;;;;;;4953674;29;20433;-73
2022/03/16 02:24:14;;;;;;;4.63;1.88;;;22.50;31.20;;;;;;4953654;29;20398;-73
2022/03/16 02:26:40;;;;;;;3.80;1.80;;;22.50;30.60;;;;;;4953339;29;20398;-74
2022/03/16 02:29:06;;;;;;;3.03;1.60;;;22.50;30.60;;;;;;4952840;28;20788;-75
2022/03/16 02:31:32;;;;;;;3.47;1.60;;;22.50;30.60;;;;;;4953587;29;20398;-73
2022/03/16 02:33:58;;;;;;;4.15;1.80;;;22.50;30.70;;;;;;4953401;29;20918;-73
2022/03/16 02:36:24;;;;;;;3.33;1.70;;;22.50;30.70;;;;;;4953452;29;20412;-73
2022/03/16 02:38:50;;;;;;;3.95;2.10;;;22.50;30.70;;;;;;4953034;29;20406;-73
2022/03/16 02:41:16;;;;;;;4.60;1.73;;;22.50;30.70;;;;;;4953390;29;20757;-73
2022/03/16 02:43:41;;;;;;;5.15;1.80;;;22.50;30.70;;;;;;4953511;29;20447;-73
2022/03/16 02:46:08;;;;;;;4.20;1.73;;;22.50;30.70;;;;;;4953306;29;20417;-73
2022/03/16 02:48:33;;;;;;;3.97;1.52;;;22.50;30.70;;;;;;4936175;29;20726;-74
2022/03/16 02:50:59;;;;;;;2.80;1.50;;;22.50;30.70;;;;;;4952580;28;20489;-74
2022/03/16 02:53:25;;;;;;;3.08;1.60;;;22.50;31.30;;;;;;4936243;29;20408;-75
2022/03/16 02:55:51;;;;;;;2.80;1.40;;;22.50;30.70;;;;;;4936214;29;20416;-74
2022/03/16 02:58:17;;;;;;;3.30;1.60;;;22.50;30.70;;;;;;4935765;29;20433;-73
2022/03/16 03:00:44;;;;;;;2.97;1.60;;;22.50;30.80;;;;;;4953055;29;20448;-73
2022/03/16 03:03:10;;;;;;;3.78;1.60;;;22.50;30.80;;;;;;4952982;29;20595;-75
2022/03/16 03:05:36;;;;;;;3.63;1.30;;;22.50;30.80;;;;;;4935938;29;20909;-75
2022/03/16 03:08:02;;;;;;;2.53;1.40;;;22.50;30.80;;;;;;4953262;29;20881;-73
2022/03/16 03:10:28;;;;;;;5.13;1.80;;;22.50;30.80;;;;;;4952974;28;20424;-75
2022/03/16 03:12:53;;;;;;;4.10;1.77;;;22.40;30.70;;;;;;4952742;29;20402;-75
2022/03/16 03:15:19;;;;;;;3.37;1.57;;;22.50;30.90;;;;;;4953145;29;20540;-75
2022/03/16 03:17:45;;;;;;;3.17;1.50;;;22.50;30.90;;;;;;4935910;29;20430;-75
2022/03/16 03:20:12;;;;;;;3.35;1.60;;;22.50;30.90;;;;;;4952918;29;20439;-75
2022/03/16 03:22:39;;;;;;;3.47;1.50;;;22.50;30.90;;;;;;4952484;29;20477;-74
2022/03/16 03:25:09;;;;;;;2.63;1.40;;;22.50;30.80;;;;;;4952548;29;20397;-75
2022/03/16 03:27:35;;;;;;;3.33;1.30;;;22.50;30.70;;;;;;4953114;29;21090;-75
2022/03/16 03:30:01;;;;;;;2.63;1.30;;;22.40;30.70;;;;;;4953010;29;20386;-74
2022/03/16 03:32:27;;;;;;;2.20;1.20;;;22.60;30.70;;;;;;4953051;29;20416;-74
2022/03/16 03:34:55;;;;;;;3.30;1.50;;;22.50;30.70;;;;;;4952599;29;20428;-74
2022/03/16 03:37:21;;;;;;;3.03;1.23;;;22.50;30.70;;;;;;4952842;29;20477;-74
2022/03/16 03:39:47;;;;;;;2.45;1.30;;;22.50;30.70;;;;;;4954515;28;20816;-75
2022/03/16 03:42:13;;;;;;;3.92;1.35;;;22.50;30.70;;;;;;4956520;29;20888;-73
2022/03/16 03:44:39;;;;;;;2.65;1.50;;;22.60;30.70;;;;;;4956695;29;20394;-74
2022/03/16 03:47:05;;;;;;;2.20;1.40;;;22.60;30.70;;;;;;4956013;29;20450;-75
2022/03/16 03:49:35;;;;;;;2.85;1.30;;;22.60;30.60;;;;;;4956495;29;20429;-74
2022/03/16 03:52:01;;;;;;;2.75;1.20;;;22.60;30.60;;;;;;4956361;29;20405;-75
2022/03/16 03:54:28;;;;;;;2.83;1.20;;;22.70;30.70;;;;;;4956349;29;20880;-74
2022/03/16 03:56:54;;;;;;;2.63;1.50;;;22.60;30.60;;;;;;4955724;29;20421;-74
2022/03/16 03:59:20;;;;;;;2.65;1.45;;;22.60;30.60;;;;;;4956262;29;20908;-75
2022/03/16 04:01:46;;;;;;;2.60;1.20;;;22.60;30.60;;;;;;4956306;29;20422;-74
2022/03/16 04:04:12;;;;;;;3.00;1.30;;;22.60;30.60;;;;;;4956184;29;20402;-73
2022/03/16 04:06:38;;;;;;;3.08;1.45;;;22.60;30.70;;;;;;4956159;29;20906;-74
2022/03/16 04:09:04;;;;;;;3.90;1.20;;;22.60;31.20;;;;;;4955498;29;20562;-73
2022/03/16 04:11:30;;;;;;;6.40;1.40;;;22.70;31.70;;;;;;4955749;29;20726;-72
2022/03/16 04:13:56;;;;;;;3.80;1.25;;;22.70;32.50;;;;;;4955992;29;20397;-77
2022/03/16 04:16:22;;;;;;;3.40;1.30;;;22.80;33.10;;;;;;4958423;29;20915;-74
2022/03/16 04:18:48;;;;;;;3.67;1.42;;;22.80;31.70;;;;;;4957310;29;20430;-75
2022/03/16 04:21:13;;;;;;;6.13;1.37;;;22.90;33.10;;;;;;4957996;29;21041;-75
2022/03/16 04:23:39;;;;;;;4.38;1.33;;;22.90;32.80;;;;;;4958070;29;20461;-75
2022/03/16 04:26:04;;;;;;;5.57;1.50;;;22.90;33.80;;;;;;4957978;29;20401;-75
2022/03/16 04:28:30;;;;;;;4.57;1.70;;;22.90;33.10;;;;;;4957699;29;20402;-73
2022/03/16 04:30:56;;;;;;;5.80;1.40;;;22.90;34.30;;;;;;4955095;29;20398;-73
2022/03/16 04:33:21;;;;;;;6.43;1.30;;;22.90;33.50;;;;;;4957417;29;20481;-76
2022/03/16 04:35:47;;;;;;;4.70;1.43;;;22.90;33.80;;;;;;4939651;29;20497;-74
2022/03/16 04:38:13;;;;;;;4.07;1.35;;;22.90;34.90;;;;;;4958143;29;20460;-74
2022/03/16 04:40:38;;;;;;;4.17;1.50;;;23.00;34.50;;;;;;4938234;29;20812;-73
2022/03/16 04:43:04;;;;;;;4.17;1.40;;;23.10;35.20;;;;;;4955213;29;20441;-73
2022/03/16 04:45:29;;;;;;;3.47;1.20;;;23.10;35.00;;;;;;4962452;28;20861;-74
2022/03/16 04:47:55;;;;;;;4.00;1.20;;;23.10;35.40;;;;;;4974817;28;20408;-73
2022/03/16 04:50:21;;;;;;;2.92;1.20;;;23.20;35.20;;;;;;4974217;28;20475;-74
2022/03/16 04:52:48;;;;;;;4.73;1.20;;;23.20;34.80;;;;;;4974626;28;20416;-74
2022/03/16 04:55:14;;;;;;;4.40;1.10;;;23.20;34.60;;;;;;4974483;28;20449;-74
2022/03/16 04:57:41;;;;;;;4.77;1.20;;;23.20;34.70;;;;;;4973923;28;20476;-74
2022/03/16 05:00:08;;;;;;;2.38;1.38;;;23.10;34.50;;;;;;4970933;28;20737;-74
2022/03/16 05:02:34;;;;;;;3.40;1.23;;;23.20;33.80;;;;;;4960182;28;20404;-73
2022/03/16 05:05:00;;;;;;;3.92;1.38;;;23.20;34.10;;;;;;4963665;28;20398;-73
2022/03/16 05:07:26;;;;;;;5.90;1.60;;;23.10;33.80;;;;;;4963388;28;20407;-74
2022/03/16 05:09:52;;;;;;;4.03;1.30;;;23.10;33.20;;;;;;4948573;28;20483;-74
2022/03/16 05:12:17;;;;;;;3.47;1.30;;;23.00;32.70;;;;;;4974084;28;20400;-73
2022/03/16 05:14:43;;;;;;;5.47;1.30;;;23.00;33.50;;;;;;4974247;28;20475;-73
2022/03/16 05:17:09;;;;;;;3.87;1.20;;;23.00;33.40;;;;;;4973602;28;20782;-74
2022/03/16 05:19:34;;;;;;;3.33;1.20;;;23.00;33.10;;;;;;4974029;28;20783;-73
2022/03/16 05:22:00;;;;;;;5.40;1.10;;;23.10;33.20;;;;;;4974158;28;20395;-73
2022/03/16 05:24:26;;;;;;;5.70;1.45;;;23.10;33.10;;;;;;4973989;28;20486;-73
2022/03/16 05:26:52;;;;;;;3.13;1.30;;;23.10;33.10;;;;;;4973599;28;20890;-73
2022/03/16 05:29:18;;;;;;;3.20;1.20;;;23.10;33.40;;;;;;4973615;28;20763;-74
2022/03/16 05:31:44;;;;;;;3.30;1.20;;;23.10;33.50;;;;;;4973840;28;20479;-73
2022/03/16 05:34:10;;;;;;;4.00;1.58;;;23.10;33.40;;;;;;4973249;28;20450;-74
2022/03/16 05:36:36;;;;;;;3.57;1.20;;;23.00;33.30;;;;;;4973493;28;20384;-73
2022/03/16 05:39:05;;;;;;;3.40;1.00;;;23.10;33.50;;;;;;4972956;28;20455;-74
2022/03/16 05:41:31;;;;;;;7.05;2.00;;;23.10;33.00;;;;;;4973685;28;20389;-74
2022/03/16 05:43:57;;;;;;;5.53;2.03;;;23.10;34.00;;;;;;4973444;28;20403;-74
2022/03/16 05:46:22;;;;;;;6.75;1.60;;;23.20;34.10;;;;;;4973594;28;20863;-74
2022/03/16 05:48:48;;;;;;;4.80;1.60;;;23.20;33.20;;;;;;4956109;28;20939;-74
2022/03/16 05:51:13;;;;;;;4.65;2.03;;;23.20;31.40;;;;;;4955712;28;20396;-73
2022/03/16 05:53:39;;;;;;;4.80;2.57;;;23.10;32.20;;;;;;4973611;28;20740;-73
2022/03/16 05:56:05;;;;;;;6.57;2.20;;;23.10;31.60;;;;;;4974097;28;20416;-73
2022/03/16 05:58:31;;;;;;;5.60;2.05;;;23.00;33.30;;;;;;4973190;28;20424;-74
2022/03/16 06:00:56;;;;;;;3.65;1.90;;;23.10;33.20;;;;;;4955643;28;20830;-74
2022/03/16 06:03:22;;;;;;;5.33;1.87;;;23.10;33.60;;;;;;4972221;28;20495;-74
2022/03/16 06:05:48;;;;;;;4.80;1.88;;;23.00;33.50;;;;;;4972959;28;20424;-74
2022/03/16 06:08:14;;;;;;;5.13;2.53;;;23.10;32.90;;;;;;4955818;28;20903;-74
2022/03/16 06:10:40;;;;;;;4.45;1.83;;;23.00;32.60;;;;;;4955754;28;20404;-74
2022/03/16 06:13:07;;;;;;;3.55;1.80;;;23.00;32.80;;;;;;4972731;28;20933;-73
2022/03/16 06:15:41;;;;;;;5.47;1.90;;;23.10;34.20;;;;;;4955897;28;20484;-75
2022/03/16 06:18:08;;;;;;;5.22;2.42;;;23.00;34.50;;;;;;4952217;28;20483;-76
2022/03/16 06:20:34;;;;;;;4.30;1.80;;;23.10;34.20;;;;;;4952185;29;20422;-75
2022/03/16 06:23:00;;;;;;;4.47;1.77;;;23.10;34.30;;;;;;4952763;28;20393;-75
2022/03/16 06:25:26;;;;;;;3.72;1.90;;;23.10;34.20;;;;;;4951679;29;20397;-75
2022/03/16 06:27:53;;;;;;;6.00;1.87;;;23.10;34.20;;;;;;4952216;29;20398;-75
2022/03/16 06:30:19;;;;;;;5.05;1.70;;;23.10;34.00;;;;;;4952144;29;20402;-76
2022/03/16 06:32:45;;;;;;;4.27;1.63;;;23.00;33.10;;;;;;4952215;29;20409;-75
2022/03/16 06:35:12;;;;;;;7.18;1.73;;;23.10;32.70;;;;;;4951741;29;20412;-74
2022/03/16 06:37:38;;;;;;;3.35;1.60;;;23.10;32.40;;;;;;4953489;29;20444;-74
2022/03/16 06:40:05;;;;;;;4.55;1.80;;;23.00;32.40;;;;;;4953506;29;20951;-75
2022/03/16 06:42:31;;;;;;;2.80;1.60;;;23.00;32.30;;;;;;4953469;29;20394;-75
2022/03/16 06:44:57;;;;;;;3.60;1.70;;;23.10;32.20;;;;;;4951875;29;20401;-74
2022/03/16 06:47:22;;;;;;;2.80;1.40;;;23.00;32.10;;;;;;4952090;29;20406;-75
2022/03/16 06:49:48;;;;;;;3.47;1.70;;;23.00;31.90;;;;;;4952166;29;20821;-75
2022/03/16 06:52:14;;;;;;;4.22;1.70;;;23.00;32.00;;;;;;4953296;29;20398;-74
2022/03/16 06:54:40;;;;;;;3.07;1.33;;;23.00;32.10;;;;;;4953379;29;20390;-74
2022/03/16 06:57:06;;;;;;;3.47;1.50;;;22.90;31.90;;;;;;4951464;29;20785;-75
2022/03/16 06:59:31;;;;;;;3.33;1.60;;;22.90;32.20;;;;;;4952167;29;20402;-74
2022/03/16 07:01:58;;;;;;;3.78;1.83;;;22.90;32.90;;;;;;4953112;28;20398;-74
2022/03/16 07:04:23;;;;;;;2.53;1.73;;;23.00;32.60;;;;;;4953325;29;20466;-74
2022/03/16 07:06:50;;;;;;;4.18;1.60;;;23.00;32.10;;;;;;4952027;29;20393;-75
2022/03/16 07:09:16;;;;;;;2.88;1.67;;;23.00;34.00;;;;;;4952755;29;20394;-76
2022/03/16 07:11:42;;;;;;;2.60;1.75;;;23.10;33.50;;;;;;4932553;29;20435;-75
2022/03/16 07:16:52;;;;;;;2.63;1.67;;;23.10;32.10;;;;;;4938915;29;20446;-74
2022/03/16 07:19:18;;;;;;;3.13;1.73;;;23.00;32.00;;;;;;4938144;29;20431;-76
2022/03/16 07:21:43;;;;;;;2.83;1.67;;;23.00;31.80;;;;;;4945776;28;20520;-74
2022/03/16 07:24:09;;;;;;;2.58;1.90;;;23.00;31.90;;;;;;4957307;28;21014;-75
2022/03/16 07:26:35;;;;;;;3.22;1.50;;;23.00;31.80;;;;;;4972396;28;20772;-75
2022/03/16 07:29:00;;;;;;;2.20;1.60;;;23.00;31.90;;;;;;4962178;28;20411;-75
2022/03/16 07:31:26;;;;;;;2.78;1.60;;;23.00;31.60;;;;;;4966496;28;20872;-74
2022/03/16 07:33:52;;;;;;;2.35;1.67;;;23.00;32.30;;;;;;4966656;28;20499;-75
2022/03/16 07:36:17;;;;;;;2.20;1.80;;;23.00;31.90;;;;;;4976319;28;20467;-75
2022/03/16 07:38:43;;;;;;;2.77;1.73;;;23.00;32.60;;;;;;4960128;28;20457;-75
2022/03/16 07:41:09;;;;;;;2.60;1.50;;;23.00;32.50;;;;;;4944069;28;20415;-74
2022/03/16 07:43:34;;;;;;;2.67;1.77;;;22.90;31.60;;;;;;4975004;28;20432;-75
2022/03/16 07:46:00;;;;;;;2.92;1.75;;;22.90;32.10;;;;;;4974999;28;20850;-74
2022/03/16 07:48:26;;;;;;;3.00;1.80;;;22.90;31.70;;;;;;4975283;28;20459;-73
2022/03/16 07:50:51;;;;;;;2.08;1.80;;;22.90;31.60;;;;;;4975215;28;20404;-74
2022/03/16 07:53:17;;;;;;;3.37;1.70;;;22.90;31.50;;;;;;4974641;28;20455;-74
2022/03/16 07:55:45;;;;;;;2.17;1.60;;;22.90;31.40;;;;;;4968952;28;20906;-74
2022/03/16 07:58:11;;;;;;;2.38;1.85;;;22.90;31.40;;;;;;4952345;28;20449;-75
2022/03/16 08:00:37;;;;;;;3.50;1.90;;;22.90;31.30;;;;;;4954299;28;20519;-75
2022/03/16 08:03:03;;;;;;;2.83;1.90;;;22.90;31.30;;;;;;4950357;28;20477;-74
2022/03/16 08:05:30;;;;;;;3.83;2.10;;;22.90;31.30;;;;;;4966441;28;20396;-74
2022/03/16 08:07:57;;;;;;;2.97;1.90;;;22.90;31.20;;;;;;4974751;28;20474;-74
2022/03/16 08:10:23;;;;;;;3.42;2.20;;;22.90;31.30;;;;;;4974649;28;20487;-74
2022/03/16 08:12:49;;;;;;;3.13;1.92;;;22.90;31.30;;;;;;4975145;28;20499;-76
2022/03/16 08:15:15;;;;;;;3.30;2.00;;;22.80;31.20;;;;;;4958007;28;20449;-74
2022/03/16 08:17:41;;;;;;;2.75;2.22;;;22.80;31.20;;;;;;4955315;29;20465;-74
2022/03/16 08:20:07;;;;;;;2.97;2.10;;;22.80;31.20;;;;;;4938214;29;20449;-74
2022/03/16 08:22:34;;;;;;;2.85;2.20;;;22.80;31.10;;;;;;4937970;29;20410;-74
2022/03/16 08:25:03;;;;;;;3.00;2.13;;;22.80;31.20;;;;;;4955020;29;20397;-76
2022/03/16 08:27:29;;;;;;;3.88;2.28;;;22.70;31.30;;;;;;4937745;29;20409;-75
2022/03/16 08:29:55;;;;;;;2.97;2.10;;;22.70;31.20;;;;;;4953542;28;20721;-74
2022/03/16 08:32:22;;;;;;;2.80;2.08;;;22.70;31.20;;;;;;4947809;28;20416;-74
2022/03/16 08:34:48;;;;;;;2.28;1.90;;;22.70;31.20;;;;;;4955066;29;20390;-75
2022/03/16 08:37:14;;;;;;;3.42;1.90;;;22.70;31.10;;;;;;4954557;29;20797;-75
2022/03/16 08:39:41;;;;;;;3.55;2.10;;;22.70;31.10;;;;;;4954853;29;20413;-74
2022/03/16 08:42:07;;;;;;;3.17;2.00;;;22.70;31.10;;;;;;4954444;29;20413;-75
2022/03/16 08:44:34;;;;;;;2.42;1.90;;;22.70;31.00;;;;;;4956641;28;20423;-76
2022/03/16 08:47:00;;;;;;;3.00;2.10;;;22.70;31.00;;;;;;4974069;28;20407;-74
2022/03/16 08:49:25;;;;;;;2.75;2.10;;;22.70;31.00;;;;;;4974176;28;20397;-75
2022/03/16 08:51:51;;;;;;;2.67;2.10;;;22.70;31.00;;;;;;4974271;28;20447;-73
2022/03/16 08:54:17;;;;;;;2.67;2.10;;;22.70;31.00;;;;;;4960800;28;20776;-73
2022/03/16 08:56:45;;;;;;;3.42;2.17;;;22.80;31.20;;;;;;4951060;28;20396;-73
2022/03/16 08:59:11;;;;;;;2.97;2.40;;;22.70;31.00;;;;;;4952827;28;20419;-74
2022/03/16 09:01:37;;;;;;;2.70;2.00;;;22.70;30.80;;;;;;4950547;28;20390;-74
2022/03/16 09:04:03;;;;;;;2.70;2.03;;;22.70;31.00;;;;;;4959959;28;20926;-73
2022/03/16 09:06:29;;;;;;;3.72;2.03;;;22.70;30.90;;;;;;4973648;28;20479;-74
2022/03/16 09:08:55;;;;;;;2.85;1.95;;;22.70;30.90;;;;;;4955737;28;20425;-73
2022/03/16 09:11:21;;;;;;;3.10;2.00;;;22.60;30.80;;;;;;4955836;28;20536;-74
2022/03/16 09:13:50;;;;;;;3.13;1.80;;;22.70;31.50;;;;;;4974223;28;20463;-75
2022/03/16 09:16:15;;;;;;;3.30;1.90;;;22.70;30.80;;;;;;4973721;28;20774;-75
2022/03/16 09:18:41;;;;;;;2.53;1.70;;;22.70;30.90;;;;;;4956103;28;20428;-74
2022/03/16 09:21:07;;;;;;;2.35;1.85;;;22.70;30.90;;;;;;4956159;28;20937;-75
2022/03/16 09:23:33;;;;;;;2.57;1.80;;;22.70;30.90;;;;;;4972818;28;20574;-77
2022/03/16 09:25:59;;;;;;;2.47;1.90;;;22.70;30.90;;;;;;4973535;28;20890;-73
2022/03/16 09:28:26;;;;;;;2.28;1.50;;;22.60;30.80;;;;;;4955821;28;20519;-75
2022/03/16 09:30:52;;;;;;;3.03;1.88;;;22.70;31.60;;;;;;4956769;28;20439;-76
2022/03/16 09:33:17;;;;;;;2.73;1.70;;;22.70;30.90;;;;;;4956597;28;20503;-74
2022/03/16 09:35:44;;;;;;;2.60;1.60;;;22.70;30.80;;;;;;4973408;28;20407;-74
2022/03/16 09:38:12;;;;;;;2.20;1.80;;;22.60;30.70;;;;;;4972985;28;20420;-74
2022/03/16 09:40:38;;;;;;;2.72;1.60;;;22.60;30.80;;;;;;4972409;28;20439;-74
2022/03/16 09:43:10;;;;;;;2.53;1.58;;;22.70;30.80;;;;;;4972465;28;20396;-74
2022/03/16 09:45:51;;;;;;;2.40;1.70;;;22.60;30.70;;;;;;4972280;28;20782;-75
2022/03/16 09:48:17;;;;;;;2.22;1.67;;;22.60;30.80;;;;;;4972604;28;20403;-74
2022/03/16 09:50:43;;;;;;;2.37;1.70;;;22.60;31.00;;;;;;4972639;28;20437;-74
2022/03/16 09:53:15;;;;;;;2.15;1.60;;;22.60;30.90;;;;;;4972323;28;20404;-75
2022/03/16 09:55:41;;;;;;;2.22;1.52;;;22.60;30.80;;;;;;4972580;28;20458;-75
2022/03/16 09:58:07;;;;;;;2.25;1.70;;;22.60;30.80;;;;;;4972264;28;20511;-74
2022/03/16 10:00:33;;;;;;;1.93;1.50;;;22.60;30.80;;;;;;4972397;28;20400;-74
2022/03/16 10:03:02;;;;;;;2.22;1.80;;;22.60;30.80;;;;;;4972483;28;20450;-74
2022/03/16 10:05:29;;;;;;;2.17;1.67;;;22.60;30.80;;;;;;4972541;28;20400;-74
2022/03/16 10:07:55;;;;;;;2.20;1.80;;;22.60;30.70;;;;;;4955355;28;20400;-74
2022/03/16 10:13:16;;;;;;;2.15;1.90;;;22.50;30.80;;;;;;4947548;28;20433;-73
2022/03/16 10:15:44;;;;;;;1.90;1.52;;;22.50;30.70;;;;;;4949491;28;20917;-73
2022/03/16 10:18:14;;;;;;;2.10;1.80;;;22.50;30.70;;;;;;4953490;28;20429;-73
2022/03/16 10:20:40;;;;;;;2.58;1.88;;;22.50;30.70;;;;;;4956294;28;20421;-76
2022/03/16 10:23:12;;;;;;;2.13;1.60;;;22.50;30.70;;;;;;4953626;28;20438;-75
2022/03/16 10:25:43;;;;;;;2.25;1.80;;;22.50;30.80;;;;;;4946114;28;20441;-76
2022/03/16 10:28:12;;;;;;;2.22;1.70;;;22.50;30.80;;;;;;4946462;28;20413;-77
2022/03/16 10:30:52;;;;;;;1.83;1.52;;;22.50;30.70;;;;;;4962537;28;20475;-73
2022/03/16 10:33:19;;;;;;;2.47;1.80;;;22.50;30.70;;;;;;4940067;28;20406;-74
2022/03/16 10:36:04;;;;;;;2.43;1.90;;;22.60;30.90;;;;;;4953686;28;20933;-74
2022/03/16 10:38:35;;;;;;;2.50;1.70;;;22.60;31.10;;;;;;4968212;28;20540;-75
2022/03/16 10:41:13;;;;;;;5.00;3.08;;;22.70;32.00;;;;;;4967018;28;20386;-75
2022/03/16 10:46:38;;;;;;;3.35;2.55;;;22.90;36.20;;;;;;4953543;28;20435;-73
2022/03/16 10:49:09;;;;;;;4.70;2.45;;;22.90;35.00;;;;;;4932647;29;20953;-74
2022/03/16 10:51:35;;;;;;;2.50;2.10;;;23.00;34.60;;;;;;4940949;29;20895;-74
2022/03/16 10:54:03;;;;;;;5.85;2.40;;;23.00;33.60;;;;;;4954747;28;20481;-77
2022/03/16 10:56:30;;;;;;;3.35;1.98;;;23.00;33.80;;;;;;4953472;28;20406;-75
2022/03/16 10:58:57;;;;;;;2.92;1.80;;;23.00;34.10;;;;;;4953344;29;20496;-74
2022/03/16 11:01:23;;;;;;;2.78;2.15;;;23.00;33.90;;;;;;4951429;28;20408;-76
2022/03/16 11:03:50;;;;;;;2.95;1.80;;;23.00;33.90;;;;;;4938530;29;20443;-74
2022/03/16 11:06:20;;;;;;;2.70;1.60;;;23.00;34.00;;;;;;4945131;28;20398;-74
2022/03/16 11:08:48;;;;;;;2.70;1.70;;;23.10;34.00;;;;;;4966889;28;20471;-74
2022/03/16 11:14:02;;;;;;;2.90;1.67;;;23.10;33.60;;;;;;4972676;28;20402;-73
2022/03/16 11:16:29;;;;;;;2.40;1.50;;;23.10;33.10;;;;;;4967355;28;20401;-75
2022/03/16 11:18:57;;;;;;;2.40;1.73;;;23.10;31.90;;;;;;4939846;28;20945;-75
2022/03/16 11:21:29;;;;;;;2.28;1.50;;;23.00;32.00;;;;;;4946412;28;20408;-75
2022/03/16 11:24:15;;;;;;;3.35;1.60;;;23.00;31.60;;;;;;4949660;28;20453;-74
2022/03/16 11:27:20;;;;;;;2.40;1.35;;;23.00;32.40;;;;;;4954809;28;20925;-74
2022/03/16 11:30:14;;;;;;;1.80;1.40;;;23.00;31.80;;;;;;4929625;29;20401;-75
2022/03/16 11:32:42;;;;;;;1.80;1.30;;;22.90;31.30;;;;;;4950049;28;20407;-75
2022/03/16 11:35:17;;;;;;;2.05;1.33;;;23.00;31.10;;;;;;4933770;29;20400;-75
2022/03/16 11:37:49;;;;;;;2.47;1.70;;;23.00;30.90;;;;;;4933847;29;20895;-75
2022/03/16 11:40:23;;;;;;;2.03;1.83;;;22.90;30.90;;;;;;4933905;29;20395;-74
2022/03/16 11:43:04;;;;;;;2.42;1.40;;;22.90;30.80;;;;;;4933933;29;20388;-75
2022/03/16 11:45:50;;;;;;;2.13;1.50;;;22.90;30.90;;;;;;4933364;29;20411;-75
2022/03/16 11:48:37;;;;;;;1.83;1.40;;;22.90;30.80;;;;;;4916712;29;20913;-75
2022/03/16 11:51:06;;;;;;;2.75;1.38;;;22.90;30.70;;;;;;4933479;29;20387;-75
2022/03/16 11:53:47;;;;;;;1.80;1.50;;;22.90;30.70;;;;;;4916361;29;20432;-75
2022/03/16 11:56:21;;;;;;;1.88;1.50;;;22.90;30.60;;;;;;4916487;29;20415;-74
2022/03/16 11:58:54;;;;;;;1.70;1.40;;;23.00;30.70;;;;;;4916482;29;20520;-74
2022/03/16 12:01:39;;;;;;;2.35;1.52;;;22.90;30.70;;;;;;4916863;29;20399;-75
2022/03/16 12:04:19;;;;;;;1.85;1.42;;;23.00;30.70;;;;;;4919876;29;20418;-75
2022/03/16 12:07:04;;;;;;;2.10;1.42;;;23.00;30.60;;;;;;4919986;29;20427;-75
2022/03/16 12:09:54;;;;;;;2.10;1.40;;;23.00;30.60;;;;;;4936633;29;20388;-75
2022/03/16 12:15:11;;;;;;;1.70;1.50;;;22.90;30.60;;;;;;4936683;29;20407;-75
2022/03/16 12:17:41;;;;;;;1.83;1.40;;;22.90;30.60;;;;;;4919513;29;20427;-75
2022/03/16 12:20:16;;;;;;;2.10;1.30;;;23.00;30.70;;;;;;4936562;29;20419;-74
2022/03/16 12:22:48;;;;;;;2.85;1.50;;;23.00;30.60;;;;;;4936787;29;20427;-75
2022/03/16 12:25:42;;;;;;;1.60;1.33;;;23.00;30.50;;;;;;4919417;29;20494;-74
2022/03/16 12:31:06;;;;;;;1.77;1.40;;;23.10;30.50;;;;;;4936547;29;20888;-74
2022/03/16 12:33:33;;;;;;;2.40;1.40;;;23.10;30.50;;;;;;4935562;29;20425;-74
2022/03/16 12:36:04;;;;;;;1.60;1.20;;;23.10;30.40;;;;;;4936243;29;20400;-75
2022/03/16 12:38:32;;;;;;;2.20;1.30;;;23.10;30.40;;;;;;4936355;29;20423;-75
2022/03/16 12:43:49;;;;;;;1.98;1.58;;;23.10;30.30;;;;;;4936700;29;20407;-74
2022/03/16 12:46:37;;;;;;;1.88;1.40;;;23.10;30.30;;;;;;4936286;29;20419;-74
2022/03/16 12:49:09;;;;;;;1.80;1.40;;;23.10;30.30;;;;;;4936252;29;20403;-75
2022/03/16 12:51:59;;;;;;;1.80;1.50;;;23.10;30.30;;;;;;4935870;29;20395;-75
2022/03/16 12:54:36;;;;;;;1.88;1.40;;;23.10;30.30;;;;;;4936239;29;20392;-75
2022/03/16 12:57:11;;;;;;;1.70;1.48;;;23.10;30.20;;;;;;4935958;29;20460;-75
2022/03/16 12:59:42;;;;;;;2.17;1.50;;;23.10;30.30;;;;;;4935871;29;20496;-75
2022/03/16 13:02:12;;;;;;;1.60;1.30;;;23.10;30.30;;;;;;4935963;29;20415;-75
2022/03/16 13:04:38;;;;;;;1.90;1.50;;;23.00;30.20;;;;;;4936075;29;20396;-75
2022/03/16 13:07:05;;;;;;;1.60;1.10;;;23.10;30.30;;;;;;4935957;29;20875;-75
2022/03/16 13:09:35;;;;;;;1.40;1.25;;;23.10;30.30;;;;;;4935431;29;20490;-74